Time;durP1;ratioP1;P1;durP2;ratioP2;P2;SDS_P1;SDS_P2;PMS_P1;PMS_P2;Temp;Humidity;BMP_temperature;BMP_pressure;BME280_temperature;BME280_humidity;BME280_pressure;Samples;Min_cycle;Max_cycle;Signal;HPM_P1;HPM_P2
2022/06/24 00:00:49;;;;;;;14.48;10.13;;;;;;;19.55;100.00;100849.13;5221325;28;20021;-78
2022/06/24 00:03:20;;;;;;;22.17;12.50;;;;;;;19.53;100.00;100853.97;5214320;28;20026;-78
2022/06/24 00:05:56;;;;;;;25.67;13.00;;;;;;;19.51;100.00;100849.78;5208865;28;20100;-78
2022/06/24 00:08:26;;;;;;;25.80;14.20;;;;;;;19.44;100.00;100846.31;5224878;28;20020;-78
2022/06/24 00:11:10;;;;;;;29.15;13.48;;;;;;;19.39;100.00;100861.41;5217528;28;20132;-75
2022/06/24 00:13:41;;;;;;;24.75;14.23;;;;;;;19.30;100.00;100859.22;5208416;28;20073;-74
2022/06/24 00:16:12;;;;;;;25.38;13.00;;;;;;;19.27;100.00;100862.34;5214853;28;20029;-75
2022/06/24 00:18:42;;;;;;;25.10;14.00;;;;;;;19.24;100.00;100860.09;5209375;28;20398;-77
2022/06/24 00:21:14;;;;;;;22.25;12.80;;;;;;;19.25;100.00;100854.44;5213184;28;20018;-75
2022/06/24 00:23:44;;;;;;;28.42;14.07;;;;;;;19.25;100.00;100845.44;5225167;28;20017;-78
2022/06/24 00:26:15;;;;;;;20.75;13.35;;;;;;;19.25;100.00;100840.84;5226225;28;20020;-75
2022/06/24 00:28:45;;;;;;;25.73;14.35;;;;;;;19.26;100.00;100841.66;5216279;28;20112;-75
2022/06/24 00:31:16;;;;;;;23.55;14.38;;;;;;;19.39;100.00;100825.22;5218467;28;20040;-75
2022/06/24 00:33:47;;;;;;;25.10;15.02;;;;;;;19.35;100.00;100815.84;5224855;28;20025;-75
2022/06/24 00:36:18;;;;;;;21.70;13.40;;;;;;;19.37;100.00;100806.38;5210946;28;20120;-75
2022/06/24 00:38:51;;;;;;;27.50;16.13;;;;;;;19.22;100.00;100800.47;5224772;28;20511;-75
2022/06/24 00:41:25;;;;;;;27.10;16.88;;;;;;;19.23;100.00;100802.16;5219442;28;20022;-75
2022/06/24 00:43:58;;;;;;;29.00;16.38;;;;;;;19.28;100.00;100791.44;5215455;28;20025;-75
2022/06/24 00:46:37;;;;;;;30.00;18.23;;;;;;;19.21;100.00;100789.84;5211238;28;20041;-74
2022/06/24 00:49:10;;;;;;;30.15;16.73;;;;;;;19.25;100.00;100777.44;5223563;28;20033;-75
2022/06/24 00:51:41;;;;;;;28.15;17.63;;;;;;;19.26;100.00;100760.91;5203554;28;20406;-75
2022/06/24 00:54:15;;;;;;;32.53;18.33;;;;;;;19.30;100.00;100737.63;5216411;28;20503;-75
2022/06/24 00:56:45;;;;;;;34.25;19.67;;;;;;;19.27;100.00;100737.25;5203693;28;20544;-76
2022/06/24 00:59:16;;;;;;;34.78;21.70;;;;;;;19.12;100.00;100746.59;5203298;28;20022;-75
2022/06/24 01:01:49;;;;;;;39.50;23.60;;;;;;;19.07;100.00;100753.78;5203911;28;20026;-75
2022/06/24 01:04:20;;;;;;;39.88;23.90;;;;;;;19.05;100.00;100747.75;5209462;28;20020;-76
2022/06/24 01:06:50;;;;;;;40.28;24.15;;;;;;;19.06;100.00;100741.25;5224514;28;20029;-75
2022/06/24 01:09:21;;;;;;;44.05;25.13;;;;;;;19.01;100.00;100741.91;5202924;28;20032;-75
2022/06/24 01:11:53;;;;;;;55.53;32.05;;;;;;;19.10;100.00;100731.59;5203845;28;20253;-75
2022/06/24 01:14:23;;;;;;;60.10;34.55;;;;;;;19.06;100.00;100722.22;5212584;28;20056;-75
2022/06/24 01:16:54;;;;;;;59.60;34.33;;;;;;;19.03;100.00;100722.69;5206842;28;20051;-75
2022/06/24 01:19:26;;;;;;;70.32;36.40;;;;;;;19.00;100.00;100713.06;5213546;28;20470;-75
2022/06/24 01:21:57;;;;;;;73.03;41.08;;;;;;;18.97;100.00;100712.69;5209029;28;20021;-76
2022/06/24 01:24:28;;;;;;;82.00;42.67;;;;;;;18.89;100.00;100724.69;5214173;28;20057;-75
2022/06/24 01:27:00;;;;;;;79.88;42.65;;;;;;;18.82;100.00;100730.16;5209742;28;20114;-75
2022/06/24 01:29:30;;;;;;;87.43;44.95;;;;;;;18.79;100.00;100736.06;5207492;28;20033;-75
2022/06/24 01:32:01;;;;;;;82.43;43.67;;;;;;;18.76;100.00;100725.63;5223782;28;20043;-75
2022/06/24 01:34:31;;;;;;;86.82;46.00;;;;;;;18.75;100.00;100725.88;5210477;28;20044;-74
2022/06/24 01:37:02;;;;;;;89.65;45.45;;;;;;;18.72;100.00;100720.88;5216262;28;20423;-73
2022/06/24 01:39:32;;;;;;;88.20;46.03;;;;;;;18.69;100.00;100719.44;5218940;28;20087;-74
2022/06/24 01:42:04;;;;;;;94.90;49.00;;;;;;;18.67;100.00;100715.22;5223714;28;20036;-74
2022/06/24 01:44:35;;;;;;;104.13;52.05;;;;;;;18.69;100.00;100716.72;5220846;28;20368;-74
2022/06/24 01:47:06;;;;;;;107.43;52.58;;;;;;;18.69;100.00;100697.69;5213924;28;20069;-73
2022/06/24 01:49:37;;;;;;;105.25;53.15;;;;;;;18.71;100.00;100681.16;5210677;28;20048;-73
2022/06/24 01:52:08;;;;;;;115.25;54.63;;;;;;;18.76;100.00;100684.03;5212060;28;20068;-74
2022/06/24 01:54:38;;;;;;;103.45;53.95;;;;;;;18.78;100.00;100681.94;5206502;28;20361;-75
2022/06/24 01:57:09;;;;;;;99.78;49.65;;;;;;;18.79;100.00;100695.31;5214045;28;20017;-75
2022/06/24 01:59:42;;;;;;;92.22;47.63;;;;;;;18.73;100.00;100695.38;5215109;28;20108;-72
2022/06/24 02:02:13;;;;;;;101.85;48.45;;;;;;;18.67;100.00;100686.19;5212855;28;20116;-73
2022/06/24 02:04:47;;;;;;;85.57;46.63;;;;;;;18.65;100.00;100680.16;5206469;28;20076;-73
2022/06/24 02:07:18;;;;;;;97.88;47.05;;;;;;;18.63;100.00;100674.94;5219941;28;20479;-73
2022/06/24 02:15:36;;;;;;;85.18;43.63;;;;;;;18.52;100.00;100661.25;5209301;28;20018;-74
2022/06/24 02:18:07;;;;;;;78.32;42.58;;;;;;;18.51;100.00;100659.59;5219239;28;20432;-75
2022/06/24 02:20:38;;;;;;;77.47;40.83;;;;;;;18.49;100.00;100675.28;5216485;28;20108;-74
2022/06/24 02:23:08;;;;;;;73.25;40.25;;;;;;;18.45;100.00;100690.34;5223089;28;20025;-74
2022/06/24 02:25:39;;;;;;;80.07;43.67;;;;;;;18.47;100.00;100697.22;5227043;28;20461;-74
2022/06/24 02:28:10;;;;;;;83.75;44.72;;;;;;;18.47;100.00;100686.34;5214692;28;20074;-75
2022/06/24 02:30:42;;;;;;;82.35;44.75;;;;;;;18.45;100.00;100687.66;5215483;28;20033;-75
2022/06/24 02:33:13;;;;;;;92.35;46.33;;;;;;;18.53;100.00;100684.66;5213885;28;20478;-74
2022/06/24 02:35:43;;;;;;;101.28;47.35;;;;;;;18.53;100.00;100673.78;5218454;28;20036;-74
2022/06/24 02:38:14;;;;;;;106.75;48.47;;;;;;;18.53;100.00;100665.66;5208550;28;20026;-74
2022/06/24 02:40:45;;;;;;;94.70;46.20;;;;;;;18.52;100.00;100669.38;5206654;28;20495;-74
2022/06/24 02:43:19;;;;;;;91.63;45.88;;;;;;;18.48;100.00;100676.34;5217059;28;20029;-74
2022/06/24 02:45:52;;;;;;;93.70;46.20;;;;;;;18.47;100.00;100674.66;5206663;28;20026;-74
2022/06/24 02:48:23;;;;;;;301.00;49.92;;;;;;;18.44;100.00;100678.66;5222424;28;20028;-74
2022/06/24 02:50:56;;;;;;;107.55;47.83;;;;;;;18.38;100.00;100688.53;5212005;28;20560;-75
2022/06/24 02:53:28;;;;;;;104.35;49.28;;;;;;;18.37;100.00;100697.75;5208727;28;20025;-74
2022/06/24 02:56:03;;;;;;;109.72;51.25;;;;;;;18.40;100.00;100704.59;5207089;28;20025;-74
2022/06/24 02:58:34;;;;;;;130.98;56.83;;;;;;;18.43;100.00;100712.31;5217449;28;20040;-75
2022/06/24 03:01:05;;;;;;;127.10;56.17;;;;;;;18.42;100.00;100721.50;5210615;28;20430;-73
2022/06/24 03:03:36;;;;;;;136.73;57.90;;;;;;;18.45;100.00;100710.19;5214540;28;20025;-73
2022/06/24 03:06:07;;;;;;;129.50;56.03;;;;;;;18.47;100.00;100712.69;5204462;28;20044;-74
2022/06/24 03:08:39;;;;;;;148.10;58.75;;;;;;;18.45;100.00;100701.22;5207353;28;20025;-73
2022/06/24 03:11:12;;;;;;;137.52;59.75;;;;;;;18.45;100.00;100709.38;5217514;28;20033;-73
2022/06/24 03:13:42;;;;;;;145.68;58.53;;;;;;;18.46;100.00;100711.84;5218992;28;20534;-74
2022/06/24 03:16:13;;;;;;;134.98;56.20;;;;;;;18.48;100.00;100714.38;5205619;28;20026;-74
2022/06/24 03:18:43;;;;;;;139.70;56.72;;;;;;;18.50;100.00;100715.81;5210154;28;20085;-74
2022/06/24 03:21:14;;;;;;;123.53;53.05;;;;;;;18.51;100.00;100717.47;5214824;28;20132;-74
2022/06/24 03:23:44;;;;;;;138.35;56.10;;;;;;;18.52;100.00;100724.53;5213024;28;20055;-74
2022/06/24 03:26:15;;;;;;;133.15;57.42;;;;;;;18.54;100.00;100718.91;5225863;28;20090;-73
2022/06/24 03:28:45;;;;;;;127.82;51.90;;;;;;;18.54;100.00;100718.91;5205605;28;20087;-74
2022/06/24 03:31:16;;;;;;;131.23;53.03;;;;;;;18.55;100.00;100721.41;5219994;28;20035;-74
2022/06/24 03:33:46;;;;;;;116.95;51.45;;;;;;;18.55;100.00;100707.81;5217328;28;20116;-73
2022/06/24 03:36:17;;;;;;;131.75;51.97;;;;;;;18.56;100.00;100698.59;5221359;28;20379;-73
2022/06/24 03:38:47;;;;;;;124.95;54.05;;;;;;;18.56;100.00;100697.78;5216173;28;20059;-73
2022/06/24 03:41:18;;;;;;;133.48;53.85;;;;;;;18.56;100.00;100703.22;5222072;28;20025;-74
2022/06/24 03:43:48;;;;;;;130.73;55.20;;;;;;;18.52;100.00;100705.53;5226157;28;20406;-74
2022/06/24 03:46:19;;;;;;;134.57;55.42;;;;;;;18.51;100.00;100705.75;5212034;28;20415;-73
2022/06/24 03:48:49;;;;;;;137.82;57.03;;;;;;;18.49;100.00;100705.16;5214175;28;20021;-73
2022/06/24 03:51:20;;;;;;;127.97;55.55;;;;;;;18.47;100.00;100704.53;5210509;28;20446;-73
2022/06/24 03:53:50;;;;;;;136.50;53.65;;;;;;;18.47;100.00;100697.22;5212879;28;20026;-73
2022/06/24 03:56:21;;;;;;;129.77;55.20;;;;;;;18.49;100.00;100708.72;5218228;28;20103;-73
2022/06/24 03:58:51;;;;;;;139.95;55.35;;;;;;;18.51;100.00;100698.44;5218286;28;20051;-74
2022/06/24 04:01:22;;;;;;;128.15;55.10;;;;;;;18.52;100.00;100705.53;5212728;28;20021;-74
2022/06/24 04:03:53;;;;;;;132.60;52.80;;;;;;;18.53;100.00;100709.94;5212010;28;20022;-73
2022/06/24 04:06:24;;;;;;;123.63;52.53;;;;;;;18.52;100.00;100700.09;5225249;28;20033;-74
2022/06/24 04:08:55;;;;;;;119.93;51.17;;;;;;;18.52;100.00;100696.56;5208112;28;20494;-73
2022/06/24 04:11:26;;;;;;;132.73;52.22;;;;;;;18.53;100.00;100698.25;5215739;28;20074;-73
2022/06/24 04:13:58;;;;;;;122.32;53.20;;;;;;;18.54;100.00;100699.91;5211915;28;20033;-73
2022/06/24 04:16:29;;;;;;;113.47;50.60;;;;;;;18.59;100.00;100695.47;5212132;28;20495;-73
2022/06/24 04:19:00;;;;;;;114.60;50.20;;;;;;;18.62;100.00;100705.03;5219194;28;20037;-73
2022/06/24 04:21:31;;;;;;;119.30;53.08;;;;;;;18.64;100.00;100698.34;5213813;28;20530;-73
2022/06/24 04:24:01;;;;;;;109.32;49.35;;;;;;;18.68;100.00;100698.75;5217130;28;20049;-74
2022/06/24 04:26:32;;;;;;;119.53;53.58;;;;;;;18.66;100.00;100689.94;5217240;28;20064;-73
2022/06/24 04:29:02;;;;;;;119.10;52.78;;;;;;;18.64;100.00;100711.91;5216475;28;20067;-73
2022/06/24 04:31:33;;;;;;;117.03;51.80;;;;;;;18.62;100.00;100710.47;5211521;28;20120;-74
2022/06/24 04:34:03;;;;;;;118.70;54.58;;;;;;;18.62;100.00;100710.47;5214270;28;20083;-74
2022/06/24 04:36:34;;;;;;;105.80;49.88;;;;;;;18.62;100.00;100715.91;5209570;28;20029;-75
2022/06/24 04:39:04;;;;;;;109.85;49.88;;;;;;;18.66;100.00;100711.69;5213031;28;20570;-73
2022/06/24 04:41:35;;;;;;;103.63;48.95;;;;;;;18.66;100.00;100711.69;5210525;28;20028;-73
2022/06/24 04:44:05;;;;;;;95.38;45.97;;;;;;;18.65;100.00;100718.19;5211233;28;20394;-72
2022/06/24 04:46:36;;;;;;;67.07;33.90;;;;;;;18.55;100.00;100718.69;5209681;28;20048;-72
2022/06/24 04:49:06;;;;;;;53.58;28.50;;;;;;;18.51;100.00;100716.63;5211710;28;20041;-74
2022/06/24 04:51:37;;;;;;;40.67;21.08;;;;;;;18.46;100.00;100717.28;5210952;28;20025;-73
2022/06/24 04:54:07;;;;;;;33.03;18.30;;;;;;;18.32;100.00;100727.44;5211081;28;20036;-73
2022/06/24 04:56:38;;;;;;;15.52;10.15;;;;;;;18.23;100.00;100736.06;5220851;28;20433;-73
2022/06/24 04:59:09;;;;;;;12.75;8.63;;;;;;;18.08;100.00;100726.34;5205253;28;20032;-73
2022/06/24 05:01:39;;;;;;;11.18;8.25;;;;;;;17.96;100.00;100725.34;5213817;28;20063;-73
2022/06/24 05:04:10;;;;;;;12.40;8.70;;;;;;;17.84;100.00;100717.09;5220942;28;20093;-73
2022/06/24 05:06:40;;;;;;;10.50;7.30;;;;;;;17.70;100.00;100723.59;5222765;28;20029;-72
2022/06/24 05:09:11;;;;;;;11.50;8.52;;;;;;;17.65;100.00;100726.13;5204301;28;20029;-73
2022/06/24 05:11:41;;;;;;;13.35;8.57;;;;;;;17.63;100.00;100728.22;5217004;28;20025;-72
2022/06/24 05:14:13;;;;;;;12.90;8.65;;;;;;;17.65;100.00;100725.28;5211485;28;20061;-72
2022/06/24 05:16:44;;;;;;;13.98;8.80;;;;;;;17.66;100.00;100726.94;5209031;28;20053;-73
2022/06/24 05:19:14;;;;;;;14.57;9.68;;;;;;;17.68;100.00;100720.28;5213154;28;20465;-72
2022/06/24 05:21:45;;;;;;;16.75;9.70;;;;;;;17.68;100.00;100720.28;5215116;28;20045;-73
2022/06/24 05:24:16;;;;;;;15.82;9.30;;;;;;;17.70;100.00;100720.06;5203728;28;20025;-72
2022/06/24 05:26:47;;;;;;;17.88;11.70;;;;;;;17.76;100.00;100724.63;5217066;28;20044;-73
2022/06/24 05:29:17;;;;;;;19.65;12.07;;;;;;;17.81;100.00;100727.53;5218436;28;20091;-73
2022/06/24 05:31:48;;;;;;;19.65;11.65;;;;;;;17.85;100.00;100723.34;5214679;28;20057;-71
2022/06/24 05:34:19;;;;;;;15.02;10.65;;;;;;;17.90;100.00;100718.09;5215204;28;20039;-71
2022/06/24 05:36:49;;;;;;;18.85;11.88;;;;;;;17.94;100.00;100719.34;5210077;28;20504;-71
2022/06/24 05:39:20;;;;;;;19.73;12.00;;;;;;;17.96;100.00;100728.06;5225712;28;20466;-71
2022/06/24 05:41:50;;;;;;;17.25;12.52;;;;;;;17.98;100.00;100723.28;5225899;28;20017;-71
2022/06/24 05:44:21;;;;;;;19.75;12.60;;;;;;;18.03;100.00;100714.47;5225365;28;20493;-71
2022/06/24 05:46:53;;;;;;;21.35;12.25;;;;;;;18.02;100.00;100712.78;5231726;28;20020;-71
2022/06/24 05:49:23;;;;;;;19.65;12.60;;;;;;;18.01;100.00;100711.97;5212016;28;20293;-71
2022/06/24 05:51:54;;;;;;;19.15;12.57;;;;;;;18.03;100.00;100709.88;5215744;28;20024;-71
2022/06/24 05:57:14;;;;;;;20.60;13.63;;;;;;;18.02;100.00;100710.06;5219620;28;20423;-70
2022/06/24 05:59:44;;;;;;;22.63;12.50;;;;;;;18.03;100.00;100709.06;5225258;28;20025;-71
2022/06/24 06:02:15;;;;;;;21.25;13.25;;;;;;;18.05;100.00;100710.47;5221778;28;20446;-71
2022/06/24 06:04:45;;;;;;;22.08;14.15;;;;;;;18.10;100.00;100718.81;5214439;28;20112;-70
2022/06/24 06:07:16;;;;;;;23.73;14.32;;;;;;;18.17;100.00;100716.03;5224718;28;20099;-70
2022/06/24 06:09:46;;;;;;;22.08;14.68;;;;;;;18.25;100.00;100718.50;5225078;28;20180;-70
2022/06/24 06:12:17;;;;;;;19.58;14.10;;;;;;;18.29;100.00;100716.19;5224798;28;20024;-71
2022/06/24 06:14:47;;;;;;;17.05;12.25;;;;;;;18.34;100.00;100714.47;5224475;28;20028;-70
2022/06/24 06:17:18;;;;;;;22.80;14.55;;;;;;;18.36;100.00;100717.78;5218713;28;20116;-70
2022/06/24 06:19:48;;;;;;;18.48;13.32;;;;;;;18.43;100.00;100716.91;5209743;28;20021;-70
2022/06/24 06:22:19;;;;;;;24.05;14.18;;;;;;;18.51;100.00;100722.88;5213766;28;20064;-70
2022/06/24 06:24:49;;;;;;;21.90;13.88;;;;;;;18.60;100.00;100723.44;5211510;28;20029;-71
2022/06/24 06:27:20;;;;;;;19.55;11.10;;;;;;;18.64;100.00;100720.06;5224508;28;20040;-71
2022/06/24 06:29:50;;;;;;;15.90;11.15;;;;;;;18.72;100.00;100715.44;5218851;28;20017;-71
2022/06/24 06:32:21;;;;;;;21.67;12.25;;;;;;;18.82;100.00;100711.16;5214083;28;20572;-71
2022/06/24 06:34:51;;;;;;;17.20;11.80;;;;;;;18.96;100.00;100708.31;5224613;28;20013;-71
2022/06/24 06:37:22;;;;;;;17.50;10.90;;;;;;;19.10;100.00;100712.56;5224704;28;20060;-71
2022/06/24 06:39:53;;;;;;;16.05;11.07;;;;;;;19.24;100.00;100718.69;5205783;28;20541;-71
2022/06/24 06:42:24;;;;;;;14.35;10.93;;;;;;;19.36;100.00;100716.84;5216610;28;20485;-71
2022/06/24 06:44:55;;;;;;;13.68;10.80;;;;;;;19.32;100.00;100716.47;5217123;28;20112;-71
2022/06/24 06:47:25;;;;;;;14.43;10.32;;;;;;;19.39;100.00;100713.69;5217260;28;20143;-70
2022/06/24 06:49:56;;;;;;;15.25;11.13;;;;;;;19.55;100.00;100714.97;5210980;28;20478;-70
2022/06/24 06:52:26;;;;;;;16.13;11.00;;;;;;;19.72;100.00;100720.63;5223810;28;20453;-70
2022/06/24 06:54:57;;;;;;;18.42;12.48;;;;;;;19.79;100.00;100719.50;5224502;28;20027;-71
2022/06/24 06:57:28;;;;;;;18.10;11.75;;;;;;;19.96;100.00;100716.13;5210727;28;20033;-71
2022/06/24 06:59:58;;;;;;;19.25;14.38;;;;;;;19.98;100.00;100724.88;5214571;28;20029;-71
2022/06/24 07:02:28;;;;;;;20.58;13.32;;;;;;;20.08;100.00;100725.16;5220672;28;20526;-71
2022/06/24 07:04:59;;;;;;;22.45;13.93;;;;;;;20.18;100.00;100718.09;5222814;28;20033;-70
2022/06/24 07:07:30;;;;;;;26.50;17.20;;;;;;;20.29;100.00;100719.19;5224216;28;20082;-71
2022/06/24 07:10:00;;;;;;;25.85;16.95;;;;;;;20.65;100.00;100714.66;5223904;28;20025;-71
2022/06/24 07:12:31;;;;;;;25.15;16.95;;;;;;;21.08;100.00;100714.28;5223939;28;20112;-71
2022/06/24 07:15:01;;;;;;;23.52;16.35;;;;;;;21.16;100.00;100710.38;5223727;28;20025;-71
2022/06/24 07:17:32;;;;;;;24.95;16.83;;;;;;;21.08;100.00;100710.72;5224204;28;20366;-71
2022/06/24 07:20:03;;;;;;;25.73;17.17;;;;;;;21.07;100.00;100712.63;5221444;28;20505;-71
2022/06/24 07:22:33;;;;;;;25.30;15.73;;;;;;;21.03;100.00;100708.69;5214608;28;20029;-71
2022/06/24 07:25:04;;;;;;;25.00;16.58;;;;;;;20.65;100.00;100706.47;5224312;28;20076;-71
2022/06/24 07:27:35;;;;;;;24.65;15.40;;;;;;;20.47;100.00;100712.03;5223708;28;20033;-71
2022/06/24 07:30:06;;;;;;;25.35;16.50;;;;;;;20.39;100.00;100705.00;5220706;28;20384;-72
2022/06/24 07:32:37;;;;;;;27.75;16.60;;;;;;;20.43;100.00;100701.56;5223967;28;20490;-71
2022/06/24 07:35:08;;;;;;;24.20;15.07;;;;;;;20.42;100.00;100710.78;5223388;28;20032;-71
2022/06/24 07:37:38;;;;;;;21.90;14.77;;;;;;;20.36;100.00;100709.00;5210325;28;20036;-71
2022/06/24 07:40:09;;;;;;;22.90;13.38;;;;;;;20.32;100.00;100710.53;5221535;28;20103;-71
2022/06/24 07:42:40;;;;;;;16.98;13.20;;;;;;;20.29;100.00;100713.75;5210271;28;20026;-71
2022/06/24 07:45:12;;;;;;;25.00;15.32;;;;;;;20.25;100.00;100714.44;5223170;28;20465;-71
2022/06/24 07:47:43;;;;;;;26.52;16.08;;;;;;;20.18;100.00;100714.53;5220572;28;20033;-71
2022/06/24 07:50:13;;;;;;;23.67;14.55;;;;;;;20.23;100.00;100717.41;5202411;28;20029;-71
2022/06/24 07:52:44;;;;;;;19.10;13.90;;;;;;;20.15;100.00;100726.72;5205924;28;20067;-71
2022/06/24 07:58:04;;;;;;;25.10;13.85;;;;;;;20.12;100.00;100727.19;5217040;28;20056;-71
2022/06/24 08:00:35;;;;;;;24.45;13.43;;;;;;;20.21;100.00;100727.69;5221032;28;20081;-70
2022/06/24 08:03:05;;;;;;;19.75;12.63;;;;;;;20.18;100.00;100722.69;5211079;28;20021;-71
2022/06/24 08:05:36;;;;;;;22.90;12.80;;;;;;;20.30;100.00;100720.03;5223660;28;20025;-71
2022/06/24 08:08:07;;;;;;;20.00;11.05;;;;;;;20.60;100.00;100718.09;5212799;28;20025;-72
2022/06/24 08:10:37;;;;;;;17.08;10.48;;;;;;;20.86;100.00;100722.25;5220091;28;20029;-70
2022/06/24 08:13:08;;;;;;;14.35;8.68;;;;;;;21.21;100.00;100719.47;5223133;28;20028;-70
2022/06/24 08:15:38;;;;;;;13.07;8.15;;;;;;;21.61;100.00;100723.34;5222389;28;20033;-71
2022/06/24 08:18:09;;;;;;;16.85;7.43;;;;;;;21.59;100.00;100709.94;5222712;28;20039;-71
2022/06/24 08:20:39;;;;;;;13.77;7.70;;;;;;;21.75;100.00;100721.16;5222454;28;20028;-70
2022/06/24 08:23:10;;;;;;;12.93;7.55;;;;;;;21.70;100.00;100720.00;5202396;28;20035;-71
2022/06/24 08:25:41;;;;;;;9.77;7.03;;;;;;;21.57;100.00;100723.00;5222750;28;20486;-70
2022/06/24 08:28:11;;;;;;;11.63;6.55;;;;;;;21.49;100.00;100714.34;5216803;28;20075;-71
2022/06/24 08:30:42;;;;;;;11.82;6.45;;;;;;;21.41;100.00;100710.09;5210987;28;20032;-70
2022/06/24 08:33:12;;;;;;;11.82;6.18;;;;;;;21.13;100.00;100708.09;5209554;28;20020;-70
2022/06/24 08:35:43;;;;;;;11.55;6.55;;;;;;;20.94;100.00;100710.97;5222654;28;20032;-71
2022/06/24 08:38:15;;;;;;;10.57;6.00;;;;;;;20.70;100.00;100701.16;5218240;28;20025;-71
2022/06/24 08:40:48;;;;;;;11.35;6.70;;;;;;;20.59;100.00;100704.69;5213375;28;20025;-70
2022/06/24 08:43:21;;;;;;;13.20;6.43;;;;;;;20.54;100.00;100705.41;5209296;28;20032;-70
2022/06/24 08:45:52;;;;;;;13.77;6.47;;;;;;;20.43;100.00;100708.88;5222312;28;20025;-71
2022/06/24 08:48:25;;;;;;;8.82;5.88;;;;;;;20.32;100.00;100710.53;5214761;28;20338;-70
2022/06/24 08:50:57;;;;;;;7.18;3.97;;;;;;;19.91;100.00;100714.91;5216501;28;20486;-71
2022/06/24 08:53:29;;;;;;;8.05;3.20;;;;;;;19.65;100.00;100720.72;5211789;28;20037;-70
2022/06/24 08:55:59;;;;;;;4.45;2.47;;;;;;;19.42;100.00;100721.38;5218159;28;20025;-70
2022/06/24 08:58:30;;;;;;;4.35;2.50;;;;;;;19.40;100.00;100715.34;5222116;28;20071;-70
2022/06/24 09:01:01;;;;;;;6.47;2.00;;;;;;;19.56;100.00;100711.19;5220793;28;20021;-71
2022/06/24 09:03:32;;;;;;;2.90;1.42;;;;;;;19.46;100.00;100710.88;5221062;28;20510;-71
2022/06/24 09:06:20;;;;;;;3.35;1.20;;;;;;;19.39;100.00;100700.09;5216122;28;20025;-71
2022/06/24 09:08:53;;;;;;;3.70;1.40;;;;;;;19.24;100.00;100705.91;5218108;28;20542;-70
2022/06/24 09:11:24;;;;;;;2.25;1.23;;;;;;;19.15;100.00;100710.00;5222026;28;20166;-70
2022/06/24 09:13:55;;;;;;;4.13;1.20;;;;;;;19.12;100.00;100703.09;5208763;28;20321;-71
2022/06/24 09:16:26;;;;;;;3.63;1.10;;;;;;;19.09;100.00;100705.47;5221902;28;20060;-70
2022/06/24 09:18:59;;;;;;;3.53;1.35;;;;;;;19.26;100.00;100695.63;5208548;28;20017;-71
2022/06/24 09:21:34;;;;;;;1.83;1.05;;;;;;;19.48;100.00;100693.28;5210601;28;20067;-71
2022/06/24 09:24:05;;;;;;;3.13;1.35;;;;;;;19.69;100.00;100694.72;5221958;28;20021;-71
2022/06/24 09:26:59;;;;;;;3.67;1.30;;;;;;;19.86;100.00;100697.63;5221710;28;20063;-71
2022/06/24 09:29:30;;;;;;;1.20;1.10;;;;;;;19.96;100.00;100675.28;5222172;28;20112;-70
2022/06/24 09:32:19;;;;;;;3.35;1.10;;;;;;;20.01;100.00;100669.97;5221902;28;20040;-70
2022/06/24 09:35:04;;;;;;;1.75;0.88;;;;;;;20.15;100.00;100666.81;5208172;28;20033;-70
2022/06/24 09:37:52;;;;;;;5.70;1.43;;;;;;;20.00;100.00;100663.69;5209098;28;20029;-71
2022/06/24 09:40:25;;;;;;;4.43;1.20;;;;;;;19.93;100.00;100665.69;5201000;28;20033;-70
2022/06/24 09:43:01;;;;;;;2.03;1.33;;;;;;;20.04;100.00;100664.91;5218407;28;20032;-71
2022/06/24 09:45:51;;;;;;;2.38;1.00;;;;;;;20.10;100.00;100676.75;5221717;28;20025;-71
2022/06/24 09:48:40;;;;;;;2.78;1.27;;;;;;;20.11;100.00;100686.56;5221779;28;20021;-71
2022/06/24 09:51:11;;;;;;;3.05;1.60;;;;;;;20.16;100.00;100684.81;5208222;28;20095;-71
2022/06/24 09:53:42;;;;;;;4.82;1.25;;;;;;;20.22;100.00;100684.94;5210227;28;20068;-71
2022/06/24 09:56:13;;;;;;;1.83;1.17;;;;;;;20.47;100.00;100692.94;5219743;28;20087;-71
2022/06/24 10:00:40;;;;;;;2.97;1.13;;;;;;;20.73;100.00;100699.81;5213839;28;20024;-70
2022/06/24 10:01:38;;;;;;;2.55;1.27;;;;;;;21.07;100.00;100690.81;5221412;28;20039;-70
2022/06/24 10:04:13;;;;;;;1.83;1.15;;;;;;;20.99;100.00;100691.19;5217116;28;20025;-71
2022/06/24 10:06:47;;;;;;;4.20;1.33;;;;;;;20.66;100.00;100699.97;5213110;28;20391;-70
2022/06/24 10:09:24;;;;;;;5.80;1.08;;;;;;;20.52;100.00;100702.06;5199421;28;20112;-70
2022/06/24 10:11:57;;;;;;;5.65;1.20;;;;;;;20.24;100.00;100705.44;5215964;28;20021;-70
2022/06/24 10:14:29;;;;;;;1.30;1.10;;;;;;;20.24;100.00;100710.88;5222541;28;20094;-70
2022/06/24 10:17:01;;;;;;;2.90;0.95;;;;;;;20.07;100.00;100713.44;5222020;28;20029;-71
2022/06/24 10:19:32;;;;;;;3.03;1.20;;;;;;;20.25;100.00;100698.91;5216010;28;20021;-71
2022/06/24 10:22:03;;;;;;;2.50;1.27;;;;;;;20.36;100.00;100705.44;5213501;28;20029;-70
2022/06/24 10:24:52;;;;;;;2.72;1.35;;;;;;;20.52;100.00;100702.06;5217237;28;20389;-71
2022/06/24 10:28:00;;;;;;;2.45;1.02;;;;;;;20.49;100.00;100697.09;5224744;28;20453;-70
2022/06/24 10:31:06;;;;;;;4.07;1.35;;;;;;;20.52;100.00;100698.50;5211492;28;20041;-70
2022/06/24 10:33:37;;;;;;;3.85;1.25;;;;;;;20.46;100.00;100692.09;5225228;28;20441;-70
2022/06/24 10:36:07;;;;;;;1.92;1.00;;;;;;;20.48;100.00;100705.50;5211812;28;20025;-70
2022/06/24 10:38:40;;;;;;;4.50;0.90;;;;;;;20.65;100.00;100699.13;5224985;28;20068;-71
2022/06/24 10:41:11;;;;;;;1.45;1.00;;;;;;;20.57;100.00;100715.00;5208039;28;20021;-70
2022/06/24 10:43:44;;;;;;;2.65;1.30;;;;;;;20.69;100.00;100711.22;5214084;28;20492;-71
2022/06/24 10:46:17;;;;;;;3.45;1.13;;;;;;;21.02;100.00;100704.31;5208419;28;20119;-71
2022/06/24 10:49:06;;;;;;;3.05;0.95;;;;;;;21.25;100.00;100702.66;5225152;28;20047;-71
2022/06/24 10:51:36;;;;;;;2.15;1.23;;;;;;;21.44;100.00;100701.47;5204012;28;20104;-71
2022/06/24 10:54:09;;;;;;;1.05;0.90;;;;;;;21.70;100.00;100691.88;5218940;28;20397;-71
2022/06/24 10:56:42;;;;;;;3.08;1.02;;;;;;;21.57;100.00;100690.25;5222234;28;20689;-72
2022/06/24 10:59:16;;;;;;;4.80;1.58;;;;;;;21.68;100.00;100685.81;5219882;28;20028;-71
2022/06/24 11:01:50;;;;;;;3.47;0.93;;;;;;;21.44;100.00;100672.25;5225138;28;20017;-71
2022/06/24 11:04:20;;;;;;;1.52;0.93;;;;;;;21.73;100.00;100677.72;5222999;28;20078;-71
2022/06/24 11:07:10;;;;;;;2.58;1.10;;;;;;;21.84;100.00;100681.47;5225048;28;20483;-71
2022/06/24 11:09:41;;;;;;;1.73;0.80;;;;;;;21.99;100.00;100676.31;5225201;28;20371;-71
2022/06/24 11:12:31;;;;;;;1.67;1.02;;;;;;;22.06;100.00;100676.13;5224568;28;20021;-70
2022/06/24 11:15:02;;;;;;;2.15;0.90;;;;;;;22.22;100.00;100670.72;5224129;28;20548;-71
2022/06/24 11:17:40;;;;;;;2.08;1.08;;;;;;;22.47;100.00;100675.78;5211535;28;20025;-70
2022/06/24 11:20:12;;;;;;;1.85;1.00;;;;;;;22.62;100.00;100666.97;5217161;28;20024;-71
2022/06/24 11:22:44;;;;;;;1.38;1.00;;;;;;;22.32;100.00;100664.59;5216603;28;20035;-71
2022/06/24 11:25:17;;;;;;;1.88;1.10;;;;;;;22.14;100.00;100659.34;5223398;28;20048;-71
2022/06/24 11:27:48;;;;;;;2.83;1.17;;;;;;;22.25;100.00;100669.41;5213446;28;20056;-70
2022/06/24 11:30:18;;;;;;;2.22;1.15;;;;;;;22.60;100.00;100671.06;5224085;28;20028;-71
2022/06/24 11:32:51;;;;;;;3.30;1.48;;;;;;;22.79;100.00;100677.88;5224917;28;20039;-71
2022/06/24 11:35:23;;;;;;;2.83;1.27;;;;;;;23.12;100.00;100668.00;5224128;28;20562;-71
2022/06/24 11:37:56;;;;;;;3.13;1.08;;;;;;;23.21;100.00;100667.28;5223280;28;20029;-70